createdAt,value
2023-05-14T00:09:32.326Z,11.09
2023-05-14T00:11:58.773Z,11.05
2023-05-14T00:14:25.228Z,11.05
2023-05-14T00:16:51.685Z,11.07
2023-05-14T00:19:18.240Z,11.07
2023-05-14T00:21:44.794Z,11.08
2023-05-14T00:24:11.280Z,11.09
2023-05-14T00:26:37.809Z,11.05
2023-05-14T00:29:04.399Z,11.05
2023-05-14T00:31:30.923Z,11.00
2023-05-14T00:33:57.462Z,11.00
2023-05-14T00:36:24.025Z,10.98
2023-05-14T00:38:50.489Z,10.95
2023-05-14T00:41:16.941Z,10.96
2023-05-14T00:43:43.350Z,10.97
2023-05-14T00:46:09.989Z,10.95
2023-05-14T00:48:36.634Z,10.94
2023-05-14T00:51:03.439Z,10.92
2023-05-14T00:53:29.989Z,10.89
2023-05-14T00:55:56.821Z,10.86
2023-05-14T00:58:24.134Z,10.82
2023-05-14T01:00:50.782Z,10.81
2023-05-14T01:03:17.339Z,10.76
2023-05-14T01:06:07.095Z,10.72
2023-05-14T01:08:50.522Z,10.63
2023-05-14T01:11:24.652Z,10.60
2023-05-14T01:14:45.266Z,10.57
2023-05-14T01:17:15.232Z,10.52
2023-05-14T01:19:44.074Z,10.45
2023-05-14T01:22:11.660Z,10.39
2023-05-14T01:24:38.454Z,10.33
2023-05-14T01:27:26.521Z,10.27
2023-05-14T01:30:09.965Z,10.19
2023-05-14T01:32:38.074Z,10.17
2023-05-14T01:35:07.172Z,10.14
2023-05-14T01:37:34.732Z,10.07
2023-05-14T01:40:02.007Z,10.01
2023-05-14T01:42:29.055Z,9.94
2023-05-14T01:44:56.162Z,9.90
2023-05-14T01:47:22.580Z,9.87
2023-05-14T01:49:49.150Z,9.80
2023-05-14T01:52:15.622Z,9.78
2023-05-14T01:54:42.115Z,9.73
2023-05-14T01:57:08.568Z,9.65
2023-05-14T01:59:35.002Z,9.60
2023-05-14T02:02:01.494Z,9.56
2023-05-14T02:04:28.124Z,9.50
2023-05-14T02:06:54.601Z,9.45
2023-05-14T02:09:21.173Z,9.41
2023-05-14T02:11:47.674Z,9.37
2023-05-14T02:14:15.213Z,9.34
2023-05-14T02:16:41.984Z,9.35
2023-05-14T02:19:08.580Z,9.40
2023-05-14T02:21:35.388Z,9.40
2023-05-14T02:24:01.884Z,9.40
2023-05-14T02:26:28.329Z,9.38
2023-05-14T02:28:55.212Z,9.36
2023-05-14T02:31:21.769Z,9.37
2023-05-14T02:33:48.224Z,9.36
2023-05-14T02:36:14.681Z,9.36
2023-05-14T02:38:41.126Z,9.35
2023-05-14T02:41:07.581Z,9.33
2023-05-14T02:43:34.067Z,9.31
2023-05-14T02:46:00.565Z,9.30
2023-05-14T02:48:27.001Z,9.25
2023-05-14T02:50:53.401Z,9.24
2023-05-14T02:53:19.814Z,9.20
2023-05-14T02:55:46.285Z,9.20
2023-05-14T02:58:12.701Z,9.19
2023-05-14T03:00:39.190Z,9.18
2023-05-14T03:03:06.166Z,9.18
2023-05-14T03:05:33.146Z,9.18
2023-05-14T03:08:00.012Z,9.17
2023-05-14T03:10:26.683Z,9.16
2023-05-14T03:12:53.213Z,9.16
2023-05-14T03:15:19.763Z,9.12
2023-05-14T03:17:46.218Z,9.13
2023-05-14T03:20:13.110Z,9.10
2023-05-14T03:22:39.547Z,9.09
2023-05-14T03:25:06.318Z,9.13
2023-05-14T03:27:33.563Z,9.17
2023-05-14T03:30:00.727Z,9.18
2023-05-14T03:32:27.350Z,9.19
2023-05-14T03:34:53.842Z,9.21
2023-05-14T03:37:20.381Z,9.24
2023-05-14T03:39:46.806Z,9.29
2023-05-14T03:42:13.319Z,9.41
2023-05-14T03:44:39.928Z,9.52
2023-05-14T03:47:06.484Z,9.60
2023-05-14T03:49:33.192Z,9.69
2023-05-14T03:51:59.645Z,9.77
2023-05-14T03:54:26.599Z,9.87
2023-05-14T03:56:53.069Z,9.89
2023-05-14T03:59:19.479Z,9.90
2023-05-14T04:01:45.932Z,9.93
2023-05-14T04:04:12.547Z,9.99
2023-05-14T04:06:39.066Z,9.99
2023-05-14T04:09:05.500Z,9.99
2023-05-14T04:11:31.957Z,10.08
2023-05-14T04:13:58.434Z,10.16
2023-05-14T04:16:24.981Z,10.21
2023-05-14T04:18:51.505Z,10.25
2023-05-14T04:21:18.077Z,10.31
2023-05-14T04:23:44.570Z,10.37
2023-05-14T04:26:11.227Z,10.39
2023-05-14T04:28:37.729Z,10.43
2023-05-14T04:31:04.377Z,10.42
2023-05-14T04:33:31.005Z,10.45
2023-05-14T04:35:57.483Z,10.50
2023-05-14T04:38:24.041Z,10.57
2023-05-14T04:40:50.680Z,10.54
2023-05-14T04:43:17.503Z,10.59
2023-05-14T04:45:44.169Z,10.60
2023-05-14T04:48:10.738Z,10.58
2023-05-14T04:50:37.258Z,10.67
2023-05-14T04:53:03.820Z,10.66
2023-05-14T04:55:30.327Z,10.72
2023-05-14T04:57:56.852Z,10.81
2023-05-14T05:00:23.588Z,10.83
2023-05-14T05:02:50.653Z,10.90
2023-05-14T05:05:17.157Z,11.03
2023-05-14T05:07:43.607Z,11.13
2023-05-14T05:10:10.193Z,11.14
2023-05-14T05:12:36.700Z,11.28
2023-05-14T05:15:03.412Z,11.36
2023-05-14T05:17:30.258Z,11.45
2023-05-14T05:19:57.074Z,11.52
2023-05-14T05:22:23.827Z,11.56
2023-05-14T05:24:50.332Z,11.64
2023-05-14T05:27:16.962Z,11.92
2023-05-14T05:29:44.676Z,12.06
2023-05-14T05:32:11.205Z,12.17
2023-05-14T05:34:37.832Z,12.25
2023-05-14T05:37:05.927Z,12.33
2023-05-14T05:39:34.792Z,12.42
2023-05-14T05:42:05.039Z,12.57
2023-05-14T05:44:31.518Z,12.76
2023-05-14T05:46:58.129Z,12.84
2023-05-14T05:49:24.611Z,12.99
2023-05-14T05:51:51.026Z,13.04
2023-05-14T05:54:17.602Z,13.17
2023-05-14T05:56:44.082Z,13.30
2023-05-14T05:59:10.516Z,13.37
2023-05-14T06:01:37.308Z,13.50
2023-05-14T06:04:06.156Z,13.63
2023-05-14T06:06:33.019Z,13.74
2023-05-14T06:08:59.564Z,13.93
2023-05-14T06:11:26.517Z,13.99
2023-05-14T06:13:53.338Z,14.03
2023-05-14T06:16:19.891Z,14.10
2023-05-14T06:18:47.039Z,14.18
2023-05-14T06:21:13.489Z,14.36
2023-05-14T06:23:39.990Z,14.53
2023-05-14T06:26:06.439Z,14.59
2023-05-14T06:28:32.875Z,14.63
2023-05-14T06:30:59.291Z,14.57
2023-05-14T06:33:30.698Z,14.47
2023-05-14T06:35:59.530Z,14.42
2023-05-14T06:38:25.999Z,14.40
2023-05-14T06:40:55.567Z,14.36
2023-05-14T06:43:22.509Z,14.37
2023-05-14T06:45:52.344Z,14.38
2023-05-14T06:48:19.923Z,14.38
2023-05-14T06:50:47.602Z,14.40
2023-05-14T06:53:14.708Z,14.45
2023-05-14T06:55:41.513Z,14.60
2023-05-14T06:58:08.614Z,14.73
2023-05-14T07:00:35.079Z,15.02
2023-05-14T07:03:01.594Z,15.17
2023-05-14T07:05:28.102Z,15.28
2023-05-14T07:07:54.688Z,15.38
2023-05-14T07:10:21.342Z,15.52
2023-05-14T07:12:47.898Z,15.52
2023-05-14T07:15:14.391Z,15.63
2023-05-14T07:17:41.272Z,15.76
2023-05-14T07:20:08.311Z,16.07
2023-05-14T07:22:34.766Z,16.10
2023-05-14T07:25:01.301Z,16.19
2023-05-14T07:27:27.790Z,16.25
2023-05-14T07:29:54.259Z,16.29
2023-05-14T07:32:20.824Z,16.47
2023-05-14T07:34:47.357Z,16.39
2023-05-14T07:37:13.866Z,16.51
2023-05-14T07:39:41.640Z,16.95
2023-05-14T07:42:08.163Z,16.82
2023-05-14T07:44:34.613Z,16.96
2023-05-14T07:47:01.152Z,17.21
2023-05-14T07:49:27.748Z,17.61
2023-05-14T07:51:54.199Z,17.70
2023-05-14T07:54:20.822Z,17.82
2023-05-14T07:56:47.247Z,17.82
2023-05-14T07:59:13.718Z,17.70
2023-05-14T08:01:40.564Z,17.83
2023-05-14T08:04:07.091Z,18.22
2023-05-14T08:06:34.019Z,18.41
2023-05-14T08:09:00.630Z,18.28
2023-05-14T08:11:27.138Z,18.50
2023-05-14T08:13:53.566Z,18.65
2023-05-14T08:16:20.061Z,18.59
2023-05-14T08:18:46.667Z,18.88
2023-05-14T08:21:13.128Z,18.96
2023-05-14T08:23:39.627Z,18.99
2023-05-14T08:26:06.163Z,18.93
2023-05-14T08:28:32.615Z,19.19
2023-05-14T08:30:59.136Z,19.20
2023-05-14T08:33:25.663Z,19.22
2023-05-14T08:35:53.276Z,19.20
2023-05-14T08:38:19.882Z,18.92
2023-05-14T08:40:56.277Z,18.99
2023-05-14T08:43:26.325Z,18.92
2023-05-14T08:45:58.704Z,18.92
2023-05-14T08:48:29.147Z,19.02
2023-05-14T08:50:56.090Z,19.10
2023-05-14T08:53:22.695Z,19.22
2023-05-14T08:55:51.251Z,18.95
2023-05-14T08:58:17.764Z,19.05
2023-05-14T09:00:44.330Z,19.22
2023-05-14T09:03:11.957Z,19.23
2023-05-14T09:05:39.151Z,19.55
2023-05-14T09:08:05.713Z,19.87
2023-05-14T09:10:32.636Z,20.10
2023-05-14T09:12:59.102Z,20.17
2023-05-14T09:15:29.117Z,20.12
2023-05-14T09:17:56.688Z,20.33
2023-05-14T09:20:24.777Z,20.36
2023-05-14T09:22:54.860Z,20.01
2023-05-14T09:25:27.444Z,20.19
2023-05-14T09:27:56.760Z,20.38
2023-05-14T09:30:26.724Z,20.57
2023-05-14T09:32:54.969Z,20.70
2023-05-14T09:35:23.565Z,20.55
2023-05-14T09:37:54.726Z,20.68
2023-05-14T09:40:24.128Z,21.04
2023-05-14T09:42:51.489Z,20.95
2023-05-14T09:45:18.252Z,20.97
2023-05-14T09:47:45.333Z,21.32
2023-05-14T09:50:12.392Z,20.97
2023-05-14T09:52:39.514Z,21.04
2023-05-14T09:55:06.941Z,20.97
2023-05-14T09:57:34.480Z,21.21
2023-05-14T10:00:01.118Z,20.90
2023-05-14T10:02:36.969Z,21.55
2023-05-14T10:05:06.306Z,22.06
2023-05-14T10:07:41.689Z,22.06
2023-05-14T10:10:13.734Z,21.88
2023-05-14T10:12:40.829Z,21.92
2023-05-14T10:15:17.140Z,21.64
2023-05-14T10:17:49.747Z,21.97
2023-05-14T10:20:17.650Z,22.28
2023-05-14T10:22:44.497Z,22.44
2023-05-14T10:25:11.545Z,22.10
2023-05-14T10:27:38.857Z,21.97
2023-05-14T10:30:14.685Z,21.52
2023-05-14T10:32:42.100Z,21.43
2023-05-14T10:35:22.216Z,21.46
2023-05-14T10:37:51.524Z,21.50
2023-05-14T10:40:19.304Z,21.64
2023-05-14T10:42:47.479Z,21.44
2023-05-14T10:45:15.659Z,21.01
2023-05-14T10:47:43.649Z,20.89
2023-05-14T10:50:15.210Z,20.59
2023-05-14T10:52:43.816Z,20.18
2023-05-14T10:55:14.618Z,19.92
2023-05-14T10:57:43.884Z,19.94
2023-05-14T11:00:12.657Z,19.72
2023-05-14T11:02:41.419Z,19.58
2023-05-14T11:05:11.377Z,19.42
2023-05-14T11:07:40.566Z,19.35
2023-05-14T11:10:13.315Z,19.19
2023-05-14T11:12:45.077Z,19.06
2023-05-14T11:15:14.052Z,18.99
2023-05-14T11:17:42.610Z,18.84
2023-05-14T11:20:10.553Z,18.65
2023-05-14T11:22:38.969Z,18.85
2023-05-14T11:25:06.668Z,19.20
2023-05-14T11:27:38.782Z,19.48
2023-05-14T11:30:06.824Z,19.93
2023-05-14T11:32:33.863Z,20.10
2023-05-14T11:35:00.786Z,20.10
2023-05-14T11:37:27.421Z,21.16
2023-05-14T11:39:56.043Z,21.01
2023-05-14T11:42:23.606Z,20.57
2023-05-14T11:44:52.150Z,20.17
2023-05-14T11:47:21.066Z,20.23
2023-05-14T11:49:48.763Z,20.48
2023-05-14T11:52:19.419Z,20.61
2023-05-14T11:54:46.721Z,20.82
2023-05-14T11:57:16.497Z,21.20
2023-05-14T11:59:43.268Z,21.23
2023-05-14T12:02:14.746Z,21.20
2023-05-14T12:04:42.889Z,21.45
2023-05-14T12:07:12.488Z,21.23
2023-05-14T12:09:44.201Z,20.98
2023-05-14T12:12:12.984Z,20.86
2023-05-14T12:14:42.624Z,20.65
2023-05-14T12:17:15.297Z,20.90
2023-05-14T12:19:43.334Z,20.72
2023-05-14T12:22:15.462Z,20.52
2023-05-14T12:24:43.714Z,20.48
2023-05-14T12:27:10.835Z,20.36
2023-05-14T12:29:41.290Z,20.25
2023-05-14T12:32:10.982Z,20.29
2023-05-14T12:34:38.664Z,20.13
2023-05-14T12:37:06.326Z,19.99
2023-05-14T12:39:34.616Z,20.08
2023-05-14T12:42:01.636Z,20.30
2023-05-14T12:44:28.618Z,20.36
2023-05-14T12:46:55.309Z,20.65
2023-05-14T12:49:21.816Z,20.50
2023-05-14T12:51:48.763Z,20.40
2023-05-14T12:54:16.156Z,20.56
2023-05-14T12:56:42.849Z,21.02
2023-05-14T12:59:09.608Z,20.88
2023-05-14T13:01:37.530Z,20.94
2023-05-14T13:04:05.450Z,20.74
2023-05-14T13:06:32.873Z,20.82
2023-05-14T13:09:01.696Z,20.41
2023-05-14T13:11:30.579Z,20.41
2023-05-14T13:13:57.662Z,20.54
2023-05-14T13:16:25.447Z,21.11
2023-05-14T13:18:52.031Z,20.57
2023-05-14T13:21:18.552Z,20.66
2023-05-14T13:23:45.088Z,20.91
2023-05-14T13:26:11.670Z,20.92
2023-05-14T13:28:38.292Z,20.61
2023-05-14T13:31:10.198Z,20.36
2023-05-14T13:33:38.544Z,20.22
2023-05-14T13:36:05.429Z,20.28
2023-05-14T13:38:32.107Z,20.21
2023-05-14T13:41:02.140Z,19.99
2023-05-14T13:43:33.310Z,20.03
2023-05-14T13:46:01.174Z,20.03
2023-05-14T13:48:28.168Z,20.03
2023-05-14T13:50:54.978Z,20.03
2023-05-14T13:53:23.279Z,20.27
2023-05-14T13:55:50.281Z,20.32
2023-05-14T13:58:16.964Z,20.32
2023-05-14T14:00:43.395Z,20.49
2023-05-14T14:03:09.969Z,20.68
2023-05-14T14:05:36.726Z,20.76
2023-05-14T14:08:13.082Z,20.95
2023-05-14T14:10:50.153Z,21.02
2023-05-14T14:13:17.077Z,20.92
2023-05-14T14:15:43.742Z,21.06
2023-05-14T14:18:10.283Z,21.06
2023-05-14T14:20:36.997Z,20.91
2023-05-14T14:23:03.558Z,20.82
2023-05-14T14:25:30.134Z,20.39
2023-05-14T14:27:57.242Z,20.26
2023-05-14T14:30:23.846Z,20.02
2023-05-14T14:32:50.842Z,19.97
2023-05-14T14:35:19.577Z,19.80
2023-05-14T14:37:49.177Z,19.69
2023-05-14T14:40:16.800Z,19.71
2023-05-14T14:42:43.605Z,19.51
2023-05-14T14:45:10.755Z,19.39
2023-05-14T14:47:37.227Z,19.36
2023-05-14T14:50:04.116Z,19.31
2023-05-14T14:52:30.639Z,19.38
2023-05-14T14:54:57.189Z,19.32
2023-05-14T14:57:23.715Z,19.33
2023-05-14T14:59:50.311Z,19.37
2023-05-14T15:02:16.853Z,19.41
2023-05-14T15:04:43.664Z,19.30
2023-05-14T15:07:10.293Z,19.36
2023-05-14T15:09:36.889Z,19.44
2023-05-14T15:12:03.555Z,19.48
2023-05-14T15:14:30.050Z,19.54
2023-05-14T15:16:56.633Z,19.51
2023-05-14T15:19:23.128Z,19.57
2023-05-14T15:21:49.967Z,19.62
2023-05-14T15:24:16.457Z,19.78
2023-05-14T15:26:43.128Z,19.82
2023-05-14T15:29:09.825Z,19.92
2023-05-14T15:31:36.478Z,19.99
2023-05-14T15:34:03.588Z,19.97
2023-05-14T15:36:30.088Z,20.03
2023-05-14T15:38:56.575Z,20.02
2023-05-14T15:41:23.069Z,20.23
2023-05-14T15:43:49.547Z,20.44
2023-05-14T15:46:16.109Z,20.48
2023-05-14T15:48:42.574Z,20.41
2023-05-14T15:51:09.082Z,20.45
2023-05-14T15:53:35.589Z,20.59
2023-05-14T15:56:02.843Z,20.59
2023-05-14T15:58:29.359Z,20.50
2023-05-14T16:00:55.992Z,20.65
2023-05-14T16:03:22.443Z,20.75
2023-05-14T16:05:49.059Z,20.77
2023-05-14T16:08:15.508Z,20.68
2023-05-14T16:10:42.045Z,20.63
2023-05-14T16:13:08.513Z,20.32
2023-05-14T16:15:35.026Z,20.29
2023-05-14T16:18:01.578Z,20.14
2023-05-14T16:20:28.188Z,19.92
2023-05-14T16:22:54.702Z,20.03
2023-05-14T16:25:21.209Z,20.58
2023-05-14T16:27:47.649Z,21.07
2023-05-14T16:30:14.257Z,20.96
2023-05-14T16:32:42.057Z,20.71
2023-05-14T16:35:09.114Z,20.81
2023-05-14T16:37:35.856Z,21.99
2023-05-14T16:40:02.347Z,22.38
2023-05-14T16:42:28.874Z,22.49
2023-05-14T16:44:55.309Z,21.79
2023-05-14T16:47:21.743Z,20.99
2023-05-14T16:49:48.506Z,20.55
2023-05-14T16:52:15.290Z,20.29
2023-05-14T16:54:41.723Z,20.16
2023-05-14T16:57:08.194Z,20.15
2023-05-14T16:59:34.630Z,20.00
2023-05-14T17:02:01.275Z,19.91
2023-05-14T17:04:27.813Z,19.85
2023-05-14T17:06:55.221Z,19.63
2023-05-14T17:09:21.701Z,19.57
2023-05-14T17:11:48.149Z,19.47
2023-05-14T17:14:14.865Z,19.47
2023-05-14T17:16:42.320Z,19.29
2023-05-14T17:19:08.865Z,19.19
2023-05-14T17:21:35.493Z,19.03
2023-05-14T17:24:01.975Z,18.98
2023-05-14T17:26:28.486Z,18.85
2023-05-14T17:28:54.938Z,18.72
2023-05-14T17:31:22.273Z,18.63
2023-05-14T17:33:49.181Z,18.47
2023-05-14T17:36:15.757Z,18.32
2023-05-14T17:38:42.189Z,18.22
2023-05-14T17:41:09.608Z,18.22
2023-05-14T17:43:36.175Z,18.06
2023-05-14T17:46:03.472Z,17.92
2023-05-14T17:48:29.950Z,17.98
2023-05-14T17:50:56.482Z,17.87
2023-05-14T17:53:23.070Z,17.71
2023-05-14T17:55:50.123Z,17.60
2023-05-14T17:58:16.690Z,17.55
2023-05-14T18:00:44.022Z,17.39
2023-05-14T18:03:10.722Z,17.30
2023-05-14T18:05:37.328Z,17.24
2023-05-14T18:08:03.956Z,17.14
2023-05-14T18:10:30.521Z,17.00
2023-05-14T18:12:57.057Z,16.91
2023-05-14T18:15:25.528Z,16.81
2023-05-14T18:17:52.798Z,16.67
2023-05-14T18:20:19.660Z,16.63
2023-05-14T18:22:46.161Z,16.52
2023-05-14T18:25:13.567Z,16.46
2023-05-14T18:27:44.338Z,16.33
2023-05-14T18:30:13.593Z,16.20
2023-05-14T18:32:41.618Z,16.10
2023-05-14T18:35:08.540Z,16.04
2023-05-14T18:37:35.244Z,15.99
2023-05-14T18:40:04.467Z,16.04
2023-05-14T18:42:30.987Z,16.00
2023-05-14T18:44:57.509Z,16.04
2023-05-14T18:47:24.073Z,15.95
2023-05-14T18:49:54.844Z,15.89
2023-05-14T18:52:24.735Z,15.79
2023-05-14T18:54:51.330Z,15.71
2023-05-14T18:57:17.956Z,15.61
2023-05-14T18:59:44.403Z,15.56
2023-05-14T19:02:10.969Z,15.43
2023-05-14T19:04:50.780Z,15.34
2023-05-14T19:07:18.166Z,15.23
2023-05-14T19:09:44.711Z,15.09
2023-05-14T19:12:11.196Z,15.00
2023-05-14T19:14:37.682Z,14.97
2023-05-14T19:17:04.715Z,14.94
2023-05-14T19:19:31.473Z,14.88
2023-05-14T19:21:58.101Z,14.69
2023-05-14T19:24:24.775Z,14.50
2023-05-14T19:26:51.326Z,14.39
2023-05-14T19:29:17.948Z,14.28
2023-05-14T19:31:45.032Z,14.17
2023-05-14T19:34:11.604Z,14.03
2023-05-14T19:36:38.196Z,13.96
2023-05-14T19:39:04.682Z,13.99
2023-05-14T19:41:31.297Z,13.95
2023-05-14T19:43:58.017Z,13.88
2023-05-14T19:46:24.686Z,13.79
2023-05-14T19:48:51.285Z,13.64
2023-05-14T19:51:18.023Z,13.57
2023-05-14T19:53:45.157Z,13.51
2023-05-14T19:56:11.757Z,13.39
2023-05-14T19:58:38.238Z,13.27
2023-05-14T20:01:05.243Z,13.13
2023-05-14T20:03:32.194Z,13.04
2023-05-14T20:05:59.048Z,13.01
2023-05-14T20:08:25.587Z,12.96
2023-05-14T20:10:52.152Z,12.97
2023-05-14T20:13:18.784Z,12.95
2023-05-14T20:15:45.327Z,12.89
2023-05-14T20:18:11.969Z,12.83
2023-05-14T20:20:39.971Z,12.79
2023-05-14T20:23:06.675Z,12.77
2023-05-14T20:25:33.431Z,12.73
2023-05-14T20:28:03.384Z,12.67
2023-05-14T20:30:30.004Z,12.57
2023-05-14T20:32:56.682Z,12.55
2023-05-14T20:35:23.573Z,12.49
2023-05-14T20:37:50.284Z,12.41
2023-05-14T20:40:17.016Z,12.33
2023-05-14T20:42:43.561Z,12.26
2023-05-14T20:45:10.962Z,12.21
2023-05-14T20:47:37.723Z,12.28
2023-05-14T20:50:04.793Z,12.28
2023-05-14T20:52:31.346Z,12.24
2023-05-14T20:55:00.106Z,12.15
2023-05-14T20:57:28.224Z,12.11
2023-05-14T20:59:54.784Z,12.04
2023-05-14T21:02:21.472Z,12.01
2023-05-14T21:04:48.125Z,11.96
2023-05-14T21:07:14.809Z,11.96
2023-05-14T21:09:41.365Z,11.98
2023-05-14T21:12:08.265Z,11.98
2023-05-14T21:14:34.774Z,12.00
2023-05-14T21:17:01.332Z,11.96
2023-05-14T21:19:27.823Z,11.96
2023-05-14T21:21:54.300Z,11.97
2023-05-14T21:24:20.817Z,12.01
2023-05-14T21:26:47.787Z,12.01
2023-05-14T21:29:14.226Z,12.01
2023-05-14T21:31:40.919Z,12.08
2023-05-14T21:34:07.389Z,12.11
2023-05-14T21:36:33.926Z,12.14
2023-05-14T21:39:00.411Z,12.14
2023-05-14T21:41:26.974Z,12.11
2023-05-14T21:43:53.407Z,12.09
2023-05-14T21:46:19.986Z,12.06
2023-05-14T21:48:46.585Z,12.04
2023-05-14T21:51:13.205Z,11.97
2023-05-14T21:53:39.672Z,11.89
2023-05-14T21:56:07.107Z,11.78
2023-05-14T21:58:33.685Z,11.67
2023-05-14T22:01:00.355Z,11.57
2023-05-14T22:03:26.903Z,11.51
2023-05-14T22:05:53.525Z,11.43
2023-05-14T22:08:20.044Z,11.32
2023-05-14T22:10:47.123Z,11.24
2023-05-14T22:13:13.662Z,11.12
2023-05-14T22:15:40.725Z,11.08
2023-05-14T22:18:07.270Z,11.00
2023-05-14T22:20:33.877Z,10.97
2023-05-14T22:23:00.501Z,10.94
2023-05-14T22:25:27.361Z,10.88
2023-05-14T22:27:54.099Z,10.91
2023-05-14T22:30:21.102Z,10.87
2023-05-14T22:32:47.702Z,10.86
2023-05-14T22:35:14.243Z,10.82
2023-05-14T22:37:40.718Z,10.75
2023-05-14T22:40:07.823Z,10.71
2023-05-14T22:42:34.350Z,10.69
2023-05-14T22:45:00.806Z,10.64
2023-05-14T22:47:27.533Z,10.59
2023-05-14T22:49:53.997Z,10.53
2023-05-14T22:52:20.450Z,10.49
2023-05-14T22:54:49.536Z,10.46
2023-05-14T22:57:16.638Z,10.50
2023-05-14T22:59:43.514Z,10.47
2023-05-14T23:02:10.412Z,10.36
2023-05-14T23:04:36.992Z,10.24
2023-05-14T23:07:03.528Z,10.20
2023-05-14T23:09:29.987Z,10.10
2023-05-14T23:11:56.464Z,10.05
2023-05-14T23:14:22.945Z,10.00
2023-05-14T23:16:49.434Z,9.93
2023-05-14T23:19:16.183Z,9.93
2023-05-14T23:21:42.970Z,9.91
2023-05-14T23:24:09.514Z,9.89
2023-05-14T23:26:35.941Z,9.85
2023-05-14T23:29:02.424Z,9.81
2023-05-14T23:31:28.903Z,9.85
2023-05-14T23:33:56.796Z,9.88
2023-05-14T23:36:23.624Z,9.90
2023-05-14T23:38:50.381Z,9.88
2023-05-14T23:41:16.800Z,9.85
2023-05-14T23:43:43.616Z,9.78
2023-05-14T23:46:10.574Z,9.67
2023-05-14T23:48:37.422Z,9.65
2023-05-14T23:51:03.926Z,9.53
2023-05-14T23:53:30.371Z,9.45
2023-05-14T23:55:56.970Z,9.33
2023-05-14T23:58:23.826Z,9.24
